Prudentia — PB4900 — position and weather

sailwx.info

Track history (hours):
 
Tides and Currents Weather Stations Pressure Air Temp Water Temp Dewpoint Dewpoint Depression Visibility Wind Speed Wind Dir Waves Ship Positions

Prudentia

Last reported at 2014-Nov-26 17:21 UTC. Time now 2014-Nov-28 06:56 UTC.
Position N 51°51' E 005°51'.

Length 70 m; draft 1.8 m.

Type: Ship. MMSI: 244660779.

Date/timePositionNaut miles runAvg speedWind from/ knotsBaromVisibWave heightAir tempDewpointWater temp
2014-Nov-26 17:21N 51°51' E 005°51'0 0.0
2014-Nov-26 16:29N 51°51' E 005°51'3 1.7
2014-Nov-26 14:32N 51°48' E 005°50'29 5.9
2014-Nov-26 09:33N 51°21' E 006°08'2 2.4
2014-Nov-26 08:33N 51°18' E 006°06'7 7.1
2014-Nov-26 07:33N 51°13' E 005°59'4 3.9
2014-Nov-26 06:33N 51°10' E 005°55'1 1.1
2014-Nov-26 05:33N 51°09' E 005°54'0 0.0
2014-Nov-26 04:33N 51°09' E 005°54'0 0.0
2014-Nov-26 03:33N 51°09' E 005°54'0 0.0
2014-Nov-26 02:33N 51°09' E 005°54'0 0.0
2014-Nov-26 01:33N 51°09' E 005°54'0 0.0
2014-Nov-26 00:33N 51°09' E 005°54'0 0.0
2014-Nov-25 23:33N 51°09' E 005°54'0 0.0
2014-Nov-25 22:33N 51°09' E 005°54'0 0.0
2014-Nov-25 21:33N 51°09' E 005°54'0 0.0
2014-Nov-25 20:32N 51°09' E 005°54'0 0.0
2014-Nov-25 08:07N 51°09' E 005°53'2 3.0
2014-Nov-25 07:33N 51°10' E 005°55'5 5.2
2014-Nov-25 06:33N 51°15' E 006°00'5 5.3
2014-Nov-25 05:33N 51°18' E 006°06'1 0.7
2014-Nov-25 04:33N 51°19' E 006°07'0 0.0
2014-Nov-25 03:32N 51°19' E 006°07'0 0.0
2014-Nov-25 02:33N 51°19' E 006°07'0 0.0
2014-Nov-25 01:33N 51°19' E 006°07'0 0.0
2014-Nov-25 00:31N 51°19' E 006°07'0 0.0
2014-Nov-24 23:33N 51°19' E 006°07'0 0.0
2014-Nov-24 22:33N 51°19' E 006°07'0 0.4
2014-Nov-24 21:27N 51°20' E 006°07'33 1.2
2014-Nov-23 17:28N 51°51' E 005°51'0 0.0
2014-Nov-23 16:29N 51°51' E 005°51'0 0.0
2014-Nov-23 15:26N 51°51' E 005°51'0 0.0
2014-Nov-23 14:30N 51°51' E 005°51'0 0.0
2014-Nov-23 13:23N 51°51' E 005°51'0 0.0
2014-Nov-23 08:29N 51°51' E 005°51'0 0.0
2014-Nov-23 07:26N 51°51' E 005°51'0 0.0
2014-Nov-23 02:18N 51°51' E 005°51'0 0.0
2014-Nov-23 01:24N 51°51' E 005°51'0 0.0
2014-Nov-23 00:31N 51°51' E 005°51'0 0.0
2014-Nov-22 23:32N 51°51' E 005°51'0 0.0
2014-Nov-22 22:33N 51°51' E 005°51'0 0.0
2014-Nov-22 21:29N 51°51' E 005°51'0 0.0
2014-Nov-22 20:33N 51°51' E 005°51'0 0.0
2014-Nov-22 19:33N 51°51' E 005°51'0 0.0
2014-Nov-22 18:33N 51°51' E 005°51'0 0.0
2014-Nov-22 17:23N 51°51' E 005°51'0 0.0
2014-Nov-22 16:32N 51°51' E 005°51'0 0.0
2014-Nov-22 15:26N 51°51' E 005°51'0 0.0
2014-Nov-22 14:32N 51°51' E 005°51'0 0.0
2014-Nov-22 13:33N 51°51' E 005°51'0 0.0
2014-Nov-22 12:33N 51°51' E 005°51'0 0.0
2014-Nov-22 11:32N 51°51' E 005°51'0 0.0
2014-Nov-22 10:29N 51°51' E 005°51'0 0.0
2014-Nov-22 09:33N 51°51' E 005°51'0 0.0
2014-Nov-22 08:31N 51°51' E 005°51'0 0.0
2014-Nov-22 07:33N 51°51' E 005°51'0 0.0
2014-Nov-22 06:33N 51°51' E 005°51'0 0.0
2014-Nov-22 05:31N 51°51' E 005°51'0 0.0
2014-Nov-22 04:33N 51°51' E 005°51'0 0.0
2014-Nov-22 03:16N 51°51' E 005°51'0 0.0
2014-Nov-22 02:22N 51°51' E 005°51'0 0.0
2014-Nov-22 01:24N 51°51' E 005°51'0 0.0
2014-Nov-22 00:23N 51°51' E 005°51'0 0.0
2014-Nov-21 23:24N 51°51' E 005°51'0 0.0
2014-Nov-21 22:29N 51°51' E 005°51'0 0.0
2014-Nov-21 21:10N 51°51' E 005°51'0 0.0
2014-Nov-21 20:32N 51°51' E 005°51'0 0.0
2014-Nov-21 19:33N 51°51' E 005°51'0 0.0
2014-Nov-21 18:17N 51°51' E 005°51'0 0.0
2014-Nov-21 17:33N 51°51' E 005°51'0 0.0
2014-Nov-21 16:33N 51°51' E 005°51'0 0.0
2014-Nov-21 15:32N 51°51' E 005°51'0 0.0
2014-Nov-21 14:31N 51°51' E 005°51'0 0.0
2014-Nov-21 13:27N 51°51' E 005°51'0 0.0
2014-Nov-21 12:19N 51°51' E 005°51'0 0.0
2014-Nov-21 11:33N 51°51' E 005°51'0 0.0
2014-Nov-21 10:33N 51°51' E 005°51'0 0.0
2014-Nov-21 09:33N 51°51' E 005°51'0 0.0
2014-Nov-21 08:31N 51°51' E 005°51'0 0.0
2014-Nov-21 07:32N 51°51' E 005°51'0 0.0
2014-Nov-21 06:31N 51°51' E 005°51'0 0.0
2014-Nov-21 05:32N 51°51' E 005°51'0 0.0
2014-Nov-21 04:33N 51°51' E 005°51'0 0.0
2014-Nov-21 03:33N 51°51' E 005°51'0 0.0
2014-Nov-21 02:33N 51°51' E 005°51'0 0.0
2014-Nov-21 01:33N 51°51' E 005°51'0 0.0
2014-Nov-21 00:32N 51°51' E 005°51'0 0.0
2014-Nov-20 23:31N 51°51' E 005°51'0 0.0
2014-Nov-20 22:33N 51°51' E 005°51'0 0.0
2014-Nov-20 21:32N 51°51' E 005°51'0 0.0
2014-Nov-20 20:33N 51°51' E 005°51'0 0.0
2014-Nov-20 19:33N 51°51' E 005°51'0 0.0
2014-Nov-20 18:33N 51°51' E 005°51'0 0.0
2014-Nov-20 17:33N 51°51' E 005°51'0 0.0
2014-Nov-20 16:33N 51°51' E 005°51'0 0.0
2014-Nov-20 15:33N 51°51' E 005°51'0 0.0
2014-Nov-20 14:30N 51°51' E 005°51'0 0.0
2014-Nov-20 13:33N 51°51' E 005°51'0 0.0
2014-Nov-20 12:27N 51°51' E 005°51'0 0.0
2014-Nov-20 11:30N 51°51' E 005°51'0 0.0
2014-Nov-20 10:33N 51°51' E 005°51'0 0.0
2014-Nov-20 09:30N 51°51' E 005°51'0 0.0
2014-Nov-20 08:31N 51°51' E 005°51'0 0.0
2014-Nov-20 07:33N 51°51' E 005°51'0 0.0
2014-Nov-20 06:30N 51°51' E 005°51'0 0.0
2014-Nov-20 05:28N 51°51' E 005°51'0 0.0
2014-Nov-20 04:33N 51°51' E 005°51'0 0.0
2014-Nov-20 03:31N 51°51' E 005°51'0 0.0
2014-Nov-20 02:24N 51°51' E 005°51'0 0.0
2014-Nov-20 01:31N 51°51' E 005°51'0 0.0
2014-Nov-20 00:33N 51°51' E 005°51'0 0.0
2014-Nov-19 23:32N 51°51' E 005°51'0 0.0
2014-Nov-19 22:31N 51°51' E 005°51'0 0.0
2014-Nov-19 21:33N 51°51' E 005°51'0 0.0
2014-Nov-19 20:33N 51°51' E 005°51'0 0.0
2014-Nov-19 19:29N 51°51' E 005°51'0 0.0
2014-Nov-19 18:29N 51°51' E 005°51'0 0.0
2014-Nov-19 17:32N 51°51' E 005°51'0 0.0
2014-Nov-19 16:25N 51°51' E 005°51'0 0.0
2014-Nov-19 15:32N 51°51' E 005°51'0 0.0
2014-Nov-19 14:33N 51°51' E 005°51'0 0.0
2014-Nov-19 13:32N 51°51' E 005°51'0 0.0
2014-Nov-19 12:33N 51°51' E 005°51'0 0.0
2014-Nov-19 11:33N 51°51' E 005°51'0 0.0
2014-Nov-19 10:33N 51°51' E 005°51'0 0.0
2014-Nov-19 09:32N 51°51' E 005°51'0 0.0
2014-Nov-19 08:33N 51°51' E 005°51'0 0.0
2014-Nov-19 07:32N 51°51' E 005°51'0 0.0
2014-Nov-19 06:33N 51°51' E 005°51'0 0.0
2014-Nov-19 05:31N 51°51' E 005°51'0 0.0
2014-Nov-19 04:31N 51°51' E 005°51'0 0.0
2014-Nov-19 03:33N 51°51' E 005°51'0 0.0
2014-Nov-19 02:31N 51°51' E 005°51'0 0.0
2014-Nov-19 01:28N 51°51' E 005°51'0 0.0
2014-Nov-19 00:28N 51°51' E 005°51'0 0.0
2014-Nov-18 23:29N 51°51' E 005°51'0 0.0
2014-Nov-18 22:24N 51°51' E 005°51'0 0.0
2014-Nov-18 21:17N 51°51' E 005°51'0 0.0
2014-Nov-18 20:25N 51°51' E 005°51'0 0.0
2014-Nov-18 19:31N 51°51' E 005°51'0 0.0
2014-Nov-18 18:33N 51°51' E 005°51'0 0.0
2014-Nov-18 17:27N 51°51' E 005°51'0 0.0
2014-Nov-18 16:30N 51°51' E 005°51'0 0.0
2014-Nov-18 15:33N 51°51' E 005°51'0 0.0
2014-Nov-18 14:33N 51°51' E 005°51'0 0.0
2014-Nov-18 13:33N 51°51' E 005°51'0 0.0
2014-Nov-18 12:29N 51°51' E 005°51'0 0.0
2014-Nov-18 11:31N 51°51' E 005°51'0 0.0
2014-Nov-18 10:32N 51°51' E 005°51'0 0.0
2014-Nov-18 09:27N 51°51' E 005°51'0 0.0
2014-Nov-18 08:33N 51°51' E 005°51'0 0.0
2014-Nov-18 07:31N 51°51' E 005°51'0 0.0
2014-Nov-18 06:31N 51°51' E 005°51'0 0.0
2014-Nov-18 05:32N 51°51' E 005°51'0 0.0
2014-Nov-18 04:32N 51°51' E 005°51'0 0.0
2014-Nov-18 03:32N 51°51' E 005°51'0 0.0
2014-Nov-18 02:31N 51°51' E 005°51'0 0.0
2014-Nov-18 01:33N 51°51' E 005°51'0 0.0
2014-Nov-18 00:30N 51°51' E 005°51'0 0.0
2014-Nov-17 23:33N 51°51' E 005°51'0 0.0
2014-Nov-17 22:33N 51°51' E 005°51'0 0.0
2014-Nov-17 21:31N 51°51' E 005°51'0 0.0
2014-Nov-17 20:33N 51°51' E 005°51'0 0.0
2014-Nov-17 19:32N 51°51' E 005°51'0 0.0
2014-Nov-17 18:31N 51°51' E 005°51'0 0.0
2014-Nov-17 17:32N 51°51' E 005°51'0 0.0
2014-Nov-17 16:33N 51°51' E 005°51'0 0.0
2014-Nov-17 15:32N 51°51' E 005°51'0 0.0
2014-Nov-17 14:30N 51°51' E 005°51'0 0.0
2014-Nov-17 13:33N 51°51' E 005°51'0 0.0
2014-Nov-17 12:32N 51°51' E 005°51'0 0.0
2014-Nov-17 11:30N 51°51' E 005°51'0 0.0
2014-Nov-17 10:27N 51°51' E 005°51'0 0.0
2014-Nov-17 09:33N 51°51' E 005°51'0 0.0
2014-Nov-17 08:32N 51°51' E 005°51'0 0.0
2014-Nov-17 07:32N 51°51' E 005°51'0 0.0
2014-Nov-17 06:31N 51°51' E 005°51'0 0.0
2014-Nov-17 05:33N 51°51' E 005°51'0 0.0
2014-Nov-17 04:33N 51°51' E 005°51'0 0.0
2014-Nov-17 03:33N 51°51' E 005°51'0 0.0
2014-Nov-17 02:33N 51°51' E 005°51'0 0.0
2014-Nov-17 01:33N 51°51' E 005°51'0 0.0
2014-Nov-17 00:33N 51°51' E 005°51'0 0.0
2014-Nov-16 23:33N 51°51' E 005°51'0 0.0
2014-Nov-16 22:33N 51°51' E 005°51'0 0.0
2014-Nov-16 21:33N 51°51' E 005°51'0 0.0
2014-Nov-16 20:33N 51°51' E 005°51'0 0.0
2014-Nov-16 19:33N 51°51' E 005°51'0 0.0
2014-Nov-16 18:33N 51°51' E 005°51'0 0.0
2014-Nov-16 17:33N 51°51' E 005°51'  
Track history (hours):
 
Tides and Currents Weather Stations Pressure Air Temp Water Temp Dewpoint Dewpoint Depression Visibility Wind Speed Wind Dir Waves Ship Positions

Prudentia

Last reported at 2014-Nov-26 17:21 UTC. Time now 2014-Nov-28 06:56 UTC.
Position N 51°51' E 005°51'.

Length 70 m; draft 1.8 m.

Type: Ship. MMSI: 244660779.

Date/timePositionNaut miles runAvg speedWind from/ knotsBaromVisibWave heightAir tempDewpointWater temp
2014-Nov-26 17:21N 51°51' E 005°51'0 0.0
2014-Nov-26 16:29N 51°51' E 005°51'3 1.7
2014-Nov-26 14:32N 51°48' E 005°50'29 5.9
2014-Nov-26 09:33N 51°21' E 006°08'2 2.4
2014-Nov-26 08:33N 51°18' E 006°06'7 7.1
2014-Nov-26 07:33N 51°13' E 005°59'4 3.9
2014-Nov-26 06:33N 51°10' E 005°55'1 1.1
2014-Nov-26 05:33N 51°09' E 005°54'0 0.0
2014-Nov-26 04:33N 51°09' E 005°54'0 0.0
2014-Nov-26 03:33N 51°09' E 005°54'0 0.0
2014-Nov-26 02:33N 51°09' E 005°54'0 0.0
2014-Nov-26 01:33N 51°09' E 005°54'0 0.0
2014-Nov-26 00:33N 51°09' E 005°54'0 0.0
2014-Nov-25 23:33N 51°09' E 005°54'0 0.0
2014-Nov-25 22:33N 51°09' E 005°54'0 0.0
2014-Nov-25 21:33N 51°09' E 005°54'0 0.0
2014-Nov-25 20:32N 51°09' E 005°54'0 0.0
2014-Nov-25 08:07N 51°09' E 005°53'2 3.0
2014-Nov-25 07:33N 51°10' E 005°55'5 5.2
2014-Nov-25 06:33N 51°15' E 006°00'5 5.3
2014-Nov-25 05:33N 51°18' E 006°06'1 0.7
2014-Nov-25 04:33N 51°19' E 006°07'0 0.0
2014-Nov-25 03:32N 51°19' E 006°07'0 0.0
2014-Nov-25 02:33N 51°19' E 006°07'0 0.0
2014-Nov-25 01:33N 51°19' E 006°07'0 0.0
2014-Nov-25 00:31N 51°19' E 006°07'0 0.0
2014-Nov-24 23:33N 51°19' E 006°07'0 0.0
2014-Nov-24 22:33N 51°19' E 006°07'0 0.4
2014-Nov-24 21:27N 51°20' E 006°07'33 1.2
2014-Nov-23 17:28N 51°51' E 005°51'0 0.0
2014-Nov-23 16:29N 51°51' E 005°51'0 0.0
2014-Nov-23 15:26N 51°51' E 005°51'0 0.0
2014-Nov-23 14:30N 51°51' E 005°51'0 0.0
2014-Nov-23 13:23N 51°51' E 005°51'0 0.0
2014-Nov-23 08:29N 51°51' E 005°51'0 0.0
2014-Nov-23 07:26N 51°51' E 005°51'0 0.0
2014-Nov-23 02:18N 51°51' E 005°51'0 0.0
2014-Nov-23 01:24N 51°51' E 005°51'0 0.0
2014-Nov-23 00:31N 51°51' E 005°51'0 0.0
2014-Nov-22 23:32N 51°51' E 005°51'0 0.0
2014-Nov-22 22:33N 51°51' E 005°51'0 0.0
2014-Nov-22 21:29N 51°51' E 005°51'0 0.0
2014-Nov-22 20:33N 51°51' E 005°51'0 0.0
2014-Nov-22 19:33N 51°51' E 005°51'0 0.0
2014-Nov-22 18:33N 51°51' E 005°51'0 0.0
2014-Nov-22 17:23N 51°51' E 005°51'0 0.0
2014-Nov-22 16:32N 51°51' E 005°51'0 0.0
2014-Nov-22 15:26N 51°51' E 005°51'0 0.0
2014-Nov-22 14:32N 51°51' E 005°51'0 0.0
2014-Nov-22 13:33N 51°51' E 005°51'0 0.0
2014-Nov-22 12:33N 51°51' E 005°51'0 0.0
2014-Nov-22 11:32N 51°51' E 005°51'0 0.0
2014-Nov-22 10:29N 51°51' E 005°51'0 0.0
2014-Nov-22 09:33N 51°51' E 005°51'0 0.0
2014-Nov-22 08:31N 51°51' E 005°51'0 0.0
2014-Nov-22 07:33N 51°51' E 005°51'0 0.0
2014-Nov-22 06:33N 51°51' E 005°51'0 0.0
2014-Nov-22 05:31N 51°51' E 005°51'0 0.0
2014-Nov-22 04:33N 51°51' E 005°51'0 0.0
2014-Nov-22 03:16N 51°51' E 005°51'0 0.0
2014-Nov-22 02:22N 51°51' E 005°51'0 0.0
2014-Nov-22 01:24N 51°51' E 005°51'0 0.0
2014-Nov-22 00:23N 51°51' E 005°51'0 0.0
2014-Nov-21 23:24N 51°51' E 005°51'0 0.0
2014-Nov-21 22:29N 51°51' E 005°51'0 0.0
2014-Nov-21 21:10N 51°51' E 005°51'0 0.0
2014-Nov-21 20:32N 51°51' E 005°51'0 0.0
2014-Nov-21 19:33N 51°51' E 005°51'0 0.0
2014-Nov-21 18:17N 51°51' E 005°51'0 0.0
2014-Nov-21 17:33N 51°51' E 005°51'0 0.0
2014-Nov-21 16:33N 51°51' E 005°51'0 0.0
2014-Nov-21 15:32N 51°51' E 005°51'0 0.0
2014-Nov-21 14:31N 51°51' E 005°51'0 0.0
2014-Nov-21 13:27N 51°51' E 005°51'0 0.0
2014-Nov-21 12:19N 51°51' E 005°51'0 0.0
2014-Nov-21 11:33N 51°51' E 005°51'0 0.0
2014-Nov-21 10:33N 51°51' E 005°51'0 0.0
2014-Nov-21 09:33N 51°51' E 005°51'0 0.0
2014-Nov-21 08:31N 51°51' E 005°51'0 0.0
2014-Nov-21 07:32N 51°51' E 005°51'0 0.0
2014-Nov-21 06:31N 51°51' E 005°51'0 0.0
2014-Nov-21 05:32N 51°51' E 005°51'0 0.0
2014-Nov-21 04:33N 51°51' E 005°51'0 0.0
2014-Nov-21 03:33N 51°51' E 005°51'0 0.0
2014-Nov-21 02:33N 51°51' E 005°51'0 0.0
2014-Nov-21 01:33N 51°51' E 005°51'0 0.0
2014-Nov-21 00:32N 51°51' E 005°51'0 0.0
2014-Nov-20 23:31N 51°51' E 005°51'0 0.0
2014-Nov-20 22:33N 51°51' E 005°51'0 0.0
2014-Nov-20 21:32N 51°51' E 005°51'0 0.0
2014-Nov-20 20:33N 51°51' E 005°51'0 0.0
2014-Nov-20 19:33N 51°51' E 005°51'0 0.0
2014-Nov-20 18:33N 51°51' E 005°51'0 0.0
2014-Nov-20 17:33N 51°51' E 005°51'0 0.0
2014-Nov-20 16:33N 51°51' E 005°51'0 0.0
2014-Nov-20 15:33N 51°51' E 005°51'0 0.0
2014-Nov-20 14:30N 51°51' E 005°51'0 0.0
2014-Nov-20 13:33N 51°51' E 005°51'0 0.0
2014-Nov-20 12:27N 51°51' E 005°51'0 0.0
2014-Nov-20 11:30N 51°51' E 005°51'0 0.0
2014-Nov-20 10:33N 51°51' E 005°51'0 0.0
2014-Nov-20 09:30N 51°51' E 005°51'0 0.0
2014-Nov-20 08:31N 51°51' E 005°51'0 0.0
2014-Nov-20 07:33N 51°51' E 005°51'0 0.0
2014-Nov-20 06:30N 51°51' E 005°51'0 0.0
2014-Nov-20 05:28N 51°51' E 005°51'0 0.0
2014-Nov-20 04:33N 51°51' E 005°51'0 0.0
2014-Nov-20 03:31N 51°51' E 005°51'0 0.0
2014-Nov-20 02:24N 51°51' E 005°51'0 0.0
2014-Nov-20 01:31N 51°51' E 005°51'0 0.0
2014-Nov-20 00:33N 51°51' E 005°51'0 0.0
2014-Nov-19 23:32N 51°51' E 005°51'0 0.0
2014-Nov-19 22:31N 51°51' E 005°51'0 0.0
2014-Nov-19 21:33N 51°51' E 005°51'0 0.0
2014-Nov-19 20:33N 51°51' E 005°51'0 0.0
2014-Nov-19 19:29N 51°51' E 005°51'0 0.0
2014-Nov-19 18:29N 51°51' E 005°51'0 0.0
2014-Nov-19 17:32N 51°51' E 005°51'0 0.0
2014-Nov-19 16:25N 51°51' E 005°51'0 0.0
2014-Nov-19 15:32N 51°51' E 005°51'0 0.0
2014-Nov-19 14:33N 51°51' E 005°51'0 0.0
2014-Nov-19 13:32N 51°51' E 005°51'0 0.0
2014-Nov-19 12:33N 51°51' E 005°51'0 0.0
2014-Nov-19 11:33N 51°51' E 005°51'0 0.0
2014-Nov-19 10:33N 51°51' E 005°51'0 0.0
2014-Nov-19 09:32N 51°51' E 005°51'0 0.0
2014-Nov-19 08:33N 51°51' E 005°51'0 0.0
2014-Nov-19 07:32N 51°51' E 005°51'0 0.0
2014-Nov-19 06:33N 51°51' E 005°51'0 0.0
2014-Nov-19 05:31N 51°51' E 005°51'0 0.0
2014-Nov-19 04:31N 51°51' E 005°51'0 0.0
2014-Nov-19 03:33N 51°51' E 005°51'0 0.0
2014-Nov-19 02:31N 51°51' E 005°51'0 0.0
2014-Nov-19 01:28N 51°51' E 005°51'0 0.0
2014-Nov-19 00:28N 51°51' E 005°51'0 0.0
2014-Nov-18 23:29N 51°51' E 005°51'0 0.0
2014-Nov-18 22:24N 51°51' E 005°51'0 0.0
2014-Nov-18 21:17N 51°51' E 005°51'0 0.0
2014-Nov-18 20:25N 51°51' E 005°51'0 0.0
2014-Nov-18 19:31N 51°51' E 005°51'0 0.0
2014-Nov-18 18:33N 51°51' E 005°51'0 0.0
2014-Nov-18 17:27N 51°51' E 005°51'0 0.0
2014-Nov-18 16:30N 51°51' E 005°51'0 0.0
2014-Nov-18 15:33N 51°51' E 005°51'0 0.0
2014-Nov-18 14:33N 51°51' E 005°51'0 0.0
2014-Nov-18 13:33N 51°51' E 005°51'0 0.0
2014-Nov-18 12:29N 51°51' E 005°51'0 0.0
2014-Nov-18 11:31N 51°51' E 005°51'0 0.0
2014-Nov-18 10:32N 51°51' E 005°51'0 0.0
2014-Nov-18 09:27N 51°51' E 005°51'0 0.0
2014-Nov-18 08:33N 51°51' E 005°51'0 0.0
2014-Nov-18 07:31N 51°51' E 005°51'0 0.0
2014-Nov-18 06:31N 51°51' E 005°51'0 0.0
2014-Nov-18 05:32N 51°51' E 005°51'0 0.0
2014-Nov-18 04:32N 51°51' E 005°51'0 0.0
2014-Nov-18 03:32N 51°51' E 005°51'0 0.0
2014-Nov-18 02:31N 51°51' E 005°51'0 0.0
2014-Nov-18 01:33N 51°51' E 005°51'0 0.0
2014-Nov-18 00:30N 51°51' E 005°51'0 0.0
2014-Nov-17 23:33N 51°51' E 005°51'0 0.0
2014-Nov-17 22:33N 51°51' E 005°51'0 0.0
2014-Nov-17 21:31N 51°51' E 005°51'0 0.0
2014-Nov-17 20:33N 51°51' E 005°51'0 0.0
2014-Nov-17 19:32N 51°51' E 005°51'0 0.0
2014-Nov-17 18:31N 51°51' E 005°51'0 0.0
2014-Nov-17 17:32N 51°51' E 005°51'0 0.0
2014-Nov-17 16:33N 51°51' E 005°51'0 0.0
2014-Nov-17 15:32N 51°51' E 005°51'0 0.0
2014-Nov-17 14:30N 51°51' E 005°51'0 0.0
2014-Nov-17 13:33N 51°51' E 005°51'0 0.0
2014-Nov-17 12:32N 51°51' E 005°51'0 0.0
2014-Nov-17 11:30N 51°51' E 005°51'0 0.0
2014-Nov-17 10:27N 51°51' E 005°51'0 0.0
2014-Nov-17 09:33N 51°51' E 005°51'0 0.0
2014-Nov-17 08:32N 51°51' E 005°51'0 0.0
2014-Nov-17 07:32N 51°51' E 005°51'0 0.0
2014-Nov-17 06:31N 51°51' E 005°51'0 0.0
2014-Nov-17 05:33N 51°51' E 005°51'0 0.0
2014-Nov-17 04:33N 51°51' E 005°51'0 0.0
2014-Nov-17 03:33N 51°51' E 005°51'0 0.0
2014-Nov-17 02:33N 51°51' E 005°51'0 0.0
2014-Nov-17 01:33N 51°51' E 005°51'0 0.0
2014-Nov-17 00:33N 51°51' E 005°51'0 0.0
2014-Nov-16 23:33N 51°51' E 005°51'0 0.0
2014-Nov-16 22:33N 51°51' E 005°51'0 0.0
2014-Nov-16 21:33N 51°51' E 005°51'0 0.0
2014-Nov-16 20:33N 51°51' E 005°51'0 0.0
2014-Nov-16 19:33N 51°51' E 005°51'0 0.0
2014-Nov-16 18:33N 51°51' E 005°51'0 0.0
2014-Nov-16 17:33N 51°51' E 005°51'  

Dump ship's entire track history